Time;durP1;ratioP1;P1;durP2;ratioP2;P2;SDS_P1;SDS_P2;PMS_P1;PMS_P2;Temp;Humidity;BMP_temperature;BMP_pressure;BME280_temperature;BME280_humidity;BME280_pressure;Samples;Min_cycle;Max_cycle;Signal;HPM_P1;HPM_P2
2022/07/18 00:00:12;;;;;;;3.05;1.13;;;;;;;15.18;64.70;99697.78;5112985;27;20043;-77
2022/07/18 00:02:40;;;;;;;4.80;1.00;;;;;;;15.32;65.11;99706.91;5108754;27;20130;-77
2022/07/18 00:05:08;;;;;;;1.23;0.90;;;;;;;15.32;65.28;99711.56;5110104;27;20162;-77
2022/07/18 00:07:35;;;;;;;1.95;0.82;;;;;;;14.96;65.78;99687.97;5114124;27;20130;-77
2022/07/18 00:10:01;;;;;;;2.38;1.10;;;;;;;15.06;65.24;99688.44;5112284;27;20756;-77
2022/07/18 00:12:28;;;;;;;1.73;0.90;;;;;;;15.15;65.65;99698.19;5117240;27;20123;-77
2022/07/18 00:14:55;;;;;;;2.30;0.98;;;;;;;15.09;65.39;99685.31;5112286;27;20047;-77
2022/07/18 00:17:21;;;;;;;2.00;1.08;;;;;;;15.07;66.95;99719.41;5109057;27;20069;-77
2022/07/18 00:19:49;;;;;;;2.08;0.98;;;;;;;14.75;67.88;99697.91;5111162;27;20126;-77
2022/07/18 00:22:16;;;;;;;2.80;1.08;;;;;;;14.65;67.75;99686.50;5105255;27;20053;-77
2022/07/18 00:24:46;;;;;;;1.52;0.90;;;;;;;14.77;68.02;99717.75;5104922;28;20482;-77
2022/07/18 00:27:12;;;;;;;;;;;;;;;14.67;68.54;99715.31;5097176;27;20062;-77
2022/07/18 00:29:41;;;;;;;5.60;0.98;;;;;;;14.44;70.13;99709.22;5104027;28;19919;-77
2022/07/18 00:32:09;;;;;;;1.63;0.90;;;;;;;14.37;70.09;99691.91;5108874;27;20482;-77
2022/07/18 00:34:36;;;;;;;1.60;1.05;;;;;;;14.56;69.53;99701.31;5114740;27;20047;-77
2022/07/18 00:37:04;;;;;;;1.77;0.95;;;;;;;14.61;69.30;99710.66;5118707;27;20047;-77
2022/07/18 00:39:31;;;;;;;3.92;1.13;;;;;;;14.58;68.19;99716.50;5107779;28;20505;-78
2022/07/18 00:41:58;;;;;;;3.35;1.05;;;;;;;14.33;67.54;99688.69;5116296;27;20131;-78
2022/07/18 00:44:27;;;;;;;1.65;1.52;;;;;;;14.40;67.56;99699.72;5110830;28;20047;-77
2022/07/18 00:46:56;;;;;;;2.15;0.90;;;;;;;14.38;68.08;99709.97;5116648;27;20461;-77
2022/07/18 00:49:23;;;;;;;2.63;1.05;;;;;;;14.27;68.16;99704.03;5110918;28;20138;-77
2022/07/18 00:51:50;;;;;;;2.78;1.00;;;;;;;14.34;66.99;99701.34;5113581;27;20513;-77
2022/07/18 00:54:18;;;;;;;1.48;1.00;;;;;;;14.19;67.74;99693.19;5112982;27;20131;-77
2022/07/18 00:56:45;;;;;;;4.43;0.95;;;;;;;14.29;68.24;99687.41;5115904;27;20515;-77
2022/07/18 00:59:13;;;;;;;4.00;0.90;;;;;;;14.31;68.22;99697.09;5112444;27;20043;-77
2022/07/18 01:01:47;;;;;;;2.00;1.08;;;;;;;13.96;69.14;99687.94;5109216;27;20043;-77
2022/07/18 01:04:16;;;;;;;2.75;1.00;;;;;;;14.15;67.96;99714.63;5107307;28;20036;-77
2022/07/18 01:06:42;;;;;;;1.38;0.80;;;;;;;13.96;68.68;99680.56;5114115;27;20417;-77
2022/07/18 01:09:09;;;;;;;6.57;0.88;;;;;;;14.16;68.88;99718.19;5119348;27;20059;-78
2022/07/18 01:11:38;;;;;;;2.67;0.77;;;;;;;14.02;70.35;99717.22;5119480;27;20054;-77
2022/07/18 01:14:06;;;;;;;1.10;0.80;;;;;;;13.91;69.81;99694.00;5116020;27;20566;-78
2022/07/18 01:16:33;;;;;;;2.38;0.80;;;;;;;14.03;71.17;99720.78;5118399;27;20801;-77
2022/07/18 01:18:59;;;;;;;4.25;1.00;;;;;;;13.91;70.44;99702.19;5114452;28;20044;-77
2022/07/18 01:21:28;;;;;;;0.88;0.60;;;;;;;13.93;71.29;99713.75;5115737;28;20076;-77
2022/07/18 01:23:54;;;;;;;1.23;0.95;;;;;;;13.93;71.08;99716.50;5114566;28;20058;-77
2022/07/18 01:26:21;;;;;;;0.95;0.75;;;;;;;13.69;71.08;99684.91;5118386;28;20043;-77
2022/07/18 01:28:48;;;;;;;1.17;0.80;;;;;;;13.65;71.10;99691.78;5115973;28;20051;-77
2022/07/18 01:31:15;;;;;;;3.88;1.00;;;;;;;13.77;71.23;99716.72;5116607;28;20539;-77
2022/07/18 01:33:42;;;;;;;3.28;1.00;;;;;;;13.62;71.40;99701.22;5107286;28;20053;-78
2022/07/18 01:36:09;;;;;;;2.15;0.80;;;;;;;13.64;70.43;99717.44;5109778;28;20047;-78
2022/07/18 01:38:37;;;;;;;1.38;0.80;;;;;;;13.63;70.84;99710.25;5124852;27;20043;-78
2022/07/18 01:41:05;;;;;;;2.63;1.05;;;;;;;13.44;70.59;99693.44;5126304;27;20039;-77
2022/07/18 01:43:32;;;;;;;2.85;0.80;;;;;;;13.34;71.25;99706.53;5113229;27;20050;-77
2022/07/18 01:45:58;;;;;;;2.67;1.25;;;;;;;13.30;71.52;99697.00;5124013;27;20085;-77
2022/07/18 01:48:25;;;;;;;2.78;1.23;;;;;;;13.25;72.67;99683.91;5112760;27;20126;-77
2022/07/18 01:50:53;;;;;;;2.97;1.00;;;;;;;13.39;72.56;99703.25;5111034;27;20047;-77
2022/07/18 01:53:21;;;;;;;1.52;0.98;;;;;;;13.48;71.64;99717.66;5119986;27;20506;-77
2022/07/18 01:55:49;;;;;;;2.33;1.10;;;;;;;13.44;71.88;99712.56;5118686;27;20127;-77
2022/07/18 01:58:15;;;;;;;1.95;1.00;;;;;;;13.32;73.43;99732.31;5117390;27;20075;-77
2022/07/18 02:00:42;;;;;;;1.48;0.95;;;;;;;12.97;75.23;99699.25;5122347;27;20042;-77
2022/07/18 02:03:08;;;;;;;1.90;0.90;;;;;;;13.06;75.12;99715.34;5123513;27;20059;-77
2022/07/18 02:05:35;;;;;;;1.75;0.90;;;;;;;13.07;74.54;99700.69;5119265;27;20047;-77
2022/07/18 02:08:02;;;;;;;1.20;0.80;;;;;;;13.14;74.24;99716.28;5120203;27;20613;-77
2022/07/18 02:10:28;;;;;;;4.53;0.80;;;;;;;12.85;75.28;99705.16;5119872;27;20051;-77
2022/07/18 02:12:56;;;;;;;3.83;0.93;;;;;;;12.76;75.74;99698.09;5115616;27;20070;-77
2022/07/18 02:15:23;;;;;;;1.58;1.08;;;;;;;12.69;75.83;99700.75;5120342;27;20558;-77
2022/07/18 02:17:51;;;;;;;1.48;0.85;;;;;;;12.80;76.11;99721.25;5120668;27;20051;-77
2022/07/18 02:20:17;;;;;;;1.20;1.10;;;;;;;12.79;76.37;99713.25;5118565;27;20070;-77
2022/07/18 02:22:44;;;;;;;0.93;0.90;;;;;;;12.85;76.29;99724.28;5123919;27;20050;-77
2022/07/18 02:25:12;;;;;;;1.38;1.08;;;;;;;12.87;75.78;99724.94;5109533;27;20046;-77
2022/07/18 02:27:39;;;;;;;0.80;0.80;;;;;;;12.85;75.89;99717.97;5117331;27;20057;-77
2022/07/18 02:30:10;;;;;;;2.95;1.00;;;;;;;12.73;76.33;99715.69;5122821;27;20441;-77
2022/07/18 02:32:37;;;;;;;1.58;0.90;;;;;;;12.69;77.05;99719.84;5120214;27;20546;-77
2022/07/18 02:35:05;;;;;;;2.15;1.17;;;;;;;12.67;77.71;99715.59;5121505;27;20051;-77
2022/07/18 02:37:32;;;;;;;1.73;1.00;;;;;;;12.59;76.88;99694.69;5116474;27;20055;-77
2022/07/18 02:39:58;;;;;;;3.10;1.63;;;;;;;12.67;77.18;99708.25;5113334;27;20090;-77
2022/07/18 02:42:25;;;;;;;1.98;0.90;;;;;;;12.64;78.09;99710.50;5119095;27;20082;-77
2022/07/18 02:44:51;;;;;;;1.08;0.90;;;;;;;12.54;79.41;99729.84;5115251;27;20066;-77
2022/07/18 02:47:19;;;;;;;2.67;1.00;;;;;;;12.19;80.11;99699.47;5113265;27;20067;-77
2022/07/18 02:49:46;;;;;;;1.35;0.98;;;;;;;12.20;80.80;99702.00;5111120;27;20135;-77
2022/07/18 02:52:12;;;;;;;3.15;1.15;;;;;;;12.31;81.01;99703.44;5123183;27;20081;-77
2022/07/18 02:54:39;;;;;;;2.17;0.88;;;;;;;12.53;80.61;99728.16;5112658;27;20044;-77
2022/07/18 02:57:06;;;;;;;1.10;1.00;;;;;;;12.45;80.07;99726.38;5119458;27;20039;-77
2022/07/18 02:59:34;;;;;;;2.15;1.02;;;;;;;12.41;80.30;99730.47;5117225;27;20447;-77
2022/07/18 03:02:00;;;;;;;3.90;1.00;;;;;;;12.28;81.45;99725.63;5116451;27;20134;-77
2022/07/18 03:04:28;;;;;;;0.95;0.88;;;;;;;12.24;81.51;99729.78;5116973;27;20040;-77
2022/07/18 03:06:55;;;;;;;8.63;1.00;;;;;;;12.12;81.00;99706.66;5114726;27;20131;-77
2022/07/18 03:09:22;;;;;;;1.02;0.90;;;;;;;12.36;80.76;99735.63;5117381;27;20502;-77
2022/07/18 03:11:49;;;;;;;2.13;1.25;;;;;;;12.00;81.43;99696.22;5117307;27;20074;-77
2022/07/18 03:14:15;;;;;;;1.02;0.90;;;;;;;12.16;79.96;99714.34;5111677;27;20040;-77
2022/07/18 03:16:42;;;;;;;1.50;0.90;;;;;;;12.13;81.84;99731.00;5119564;27;20143;-77
2022/07/18 03:19:08;;;;;;;1.85;0.90;;;;;;;11.98;82.33;99713.75;5114118;27;20080;-77
2022/07/18 03:21:36;;;;;;;1.00;0.88;;;;;;;12.12;83.50;99734.78;5111884;28;20051;-77
2022/07/18 03:24:03;;;;;;;3.67;1.00;;;;;;;11.92;82.86;99709.84;5117581;27;20048;-77
2022/07/18 03:26:30;;;;;;;1.33;0.90;;;;;;;12.22;81.68;99737.25;5118121;27;20550;-77
2022/07/18 03:28:57;;;;;;;1.30;0.90;;;;;;;12.26;80.05;99735.88;5115190;27;20043;-77
2022/07/18 03:31:24;;;;;;;1.63;0.80;;;;;;;12.12;80.80;99714.84;5112191;27;20470;-77
2022/07/18 03:33:50;;;;;;;1.13;1.00;;;;;;;12.15;80.44;99737.16;5111511;27;20502;-77
2022/07/18 03:36:17;;;;;;;3.17;0.95;;;;;;;12.12;78.93;99736.66;5115616;27;20048;-77
2022/07/18 03:38:45;;;;;;;5.18;1.23;;;;;;;11.98;79.62;99725.53;5122085;27;20043;-77
2022/07/18 03:41:12;;;;;;;1.00;0.73;;;;;;;11.86;80.62;99744.13;5117507;27;20044;-77
2022/07/18 03:43:39;;;;;;;3.53;1.00;;;;;;;11.69;81.04;99729.72;5110962;27;20139;-77
2022/07/18 03:46:06;;;;;;;4.10;1.10;;;;;;;11.85;81.46;99738.84;5111856;28;20513;-77
2022/07/18 03:48:33;;;;;;;1.38;0.93;;;;;;;11.85;81.23;99747.88;5115872;27;20082;-77
2022/07/18 03:51:00;;;;;;;2.78;1.00;;;;;;;11.78;82.20;99716.06;5111755;28;20039;-77
2022/07/18 03:53:26;;;;;;;1.23;0.85;;;;;;;11.69;82.97;99732.44;5121270;27;20058;-77
2022/07/18 03:55:54;;;;;;;1.17;0.88;;;;;;;11.90;81.99;99732.88;5116020;27;20053;-77
2022/07/18 03:58:21;;;;;;;2.13;0.85;;;;;;;11.76;81.89;99720.88;5116184;27;20047;-77
2022/07/18 04:00:48;;;;;;;1.33;0.85;;;;;;;11.99;81.86;99721.75;5114388;27;20051;-77
2022/07/18 04:03:15;;;;;;;2.35;0.85;;;;;;;11.94;82.75;99728.75;5112879;27;20052;-77
2022/07/18 04:05:41;;;;;;;2.30;0.88;;;;;;;11.90;82.07;99701.00;5119601;27;20572;-77
2022/07/18 04:08:08;;;;;;;3.00;1.17;;;;;;;12.11;80.50;99724.06;5116159;27;20086;-77
2022/07/18 04:10:34;;;;;;;1.52;1.05;;;;;;;12.11;81.04;99703.09;5121538;27;20043;-77
2022/07/18 04:13:02;;;;;;;2.05;1.00;;;;;;;12.21;80.55;99728.25;5112608;27;20044;-77
2022/07/18 04:15:31;;;;;;;2.30;1.10;;;;;;;11.99;80.98;99707.28;5115475;27;20048;-77
2022/07/18 04:17:58;;;;;;;2.42;1.02;;;;;;;11.97;80.54;99701.19;5117204;27;20457;-77
2022/07/18 04:20:25;;;;;;;4.00;1.23;;;;;;;12.00;79.78;99709.84;5112757;27;20122;-77
2022/07/18 04:22:53;;;;;;;3.58;1.00;;;;;;;12.06;81.04;99731.94;5117495;27;20055;-77
2022/07/18 04:25:22;;;;;;;2.20;0.70;;;;;;;12.03;79.44;99714.09;5116796;27;20043;-77
2022/07/18 04:27:49;;;;;;;2.78;0.80;;;;;;;12.24;79.04;99739.81;5116768;27;20398;-77
2022/07/18 04:30:19;;;;;;;2.60;1.00;;;;;;;12.18;78.98;99714.16;5109811;27;20047;-76
2022/07/18 04:32:46;;;;;;;2.28;1.08;;;;;;;12.32;80.44;99724.25;5111727;27;20418;-77
2022/07/18 04:35:13;;;;;;;4.50;1.10;;;;;;;12.29;80.48;99710.13;5115716;27;20252;-77
2022/07/18 04:37:40;;;;;;;2.67;0.90;;;;;;;12.45;81.36;99723.63;5117543;27;20048;-77
2022/07/18 04:40:10;;;;;;;6.60;1.13;;;;;;;12.32;79.37;99707.88;5113485;27;20128;-77
2022/07/18 04:42:37;;;;;;;2.72;1.10;;;;;;;12.50;77.30;99728.53;5112643;27;20039;-77
2022/07/18 04:45:05;;;;;;;3.28;1.00;;;;;;;12.42;77.81;99718.56;5116303;27;20079;-77
2022/07/18 04:47:33;;;;;;;1.55;1.00;;;;;;;12.58;77.84;99731.19;5112628;27;20104;-77
2022/07/18 04:50:00;;;;;;;1.77;1.00;;;;;;;12.44;75.53;99685.66;5109783;28;20055;-77
2022/07/18 04:52:26;;;;;;;0.80;0.80;;;;;;;12.69;72.91;99698.03;5116508;27;20049;-77
2022/07/18 04:54:53;;;;;;;1.13;0.70;;;;;;;12.87;73.21;99702.25;5114683;27;20085;-78
2022/07/18 04:57:20;;;;;;;2.78;0.98;;;;;;;13.13;71.72;99714.59;5113772;27;20139;-78
2022/07/18 04:59:47;;;;;;;0.77;0.77;;;;;;;13.12;74.76;99700.09;5110792;27;20516;-78
2022/07/18 05:02:14;;;;;;;9.10;2.28;;;;;;;13.35;71.91;99718.31;5108030;27;20440;-77
2022/07/18 05:04:42;;;;;;;7.20;1.17;;;;;;;13.35;70.68;99691.00;5112908;27;20040;-77
2022/07/18 05:07:08;;;;;;;2.83;0.85;;;;;;;13.63;69.90;99724.75;5106092;28;20044;-78
2022/07/18 05:09:35;;;;;;;3.00;0.60;;;;;;;13.88;69.84;99742.69;5112688;27;20051;-78
2022/07/18 05:12:02;;;;;;;1.48;0.90;;;;;;;14.43;67.27;99718.47;5115572;27;20140;-78
2022/07/18 05:14:28;;;;;;;1.67;0.80;;;;;;;15.29;65.17;99728.41;5106990;28;20437;-78
2022/07/18 05:16:55;;;;;;;3.03;1.02;;;;;;;15.58;63.08;99708.09;5110767;28;20043;-78
2022/07/18 05:19:22;;;;;;;2.63;0.80;;;;;;;16.27;60.55;99692.47;5103912;28;20071;-78
2022/07/18 05:21:50;;;;;;;2.40;0.90;;;;;;;16.81;57.59;99702.41;5110530;28;20134;-78
2022/07/18 05:24:17;;;;;;;2.38;0.82;;;;;;;17.09;55.87;99717.00;5109859;28;20550;-77
2022/07/18 05:26:44;;;;;;;5.28;1.48;;;;;;;17.39;52.05;99689.88;5111044;28;20047;-77
2022/07/18 05:29:12;;;;;;;1.27;0.57;;;;;;;17.81;49.67;99694.97;5108146;28;20057;-78
2022/07/18 05:31:39;;;;;;;2.53;0.80;;;;;;;18.01;50.12;99706.72;5120407;27;20413;-78
2022/07/18 05:34:06;;;;;;;2.13;0.88;;;;;;;18.34;50.21;99700.19;5108027;27;20047;-77
2022/07/18 05:36:32;;;;;;;1.55;0.77;;;;;;;18.38;50.49;99690.41;5111672;28;20075;-78
2022/07/18 05:39:00;;;;;;;2.72;0.93;;;;;;;18.94;50.01;99723.66;5111478;28;20052;-78
2022/07/18 05:41:27;;;;;;;2.72;0.95;;;;;;;18.90;48.60;99723.25;5105405;28;20132;-78
2022/07/18 05:43:53;;;;;;;3.80;1.10;;;;;;;19.07;47.97;99692.38;5112809;28;20136;-78
2022/07/18 05:46:20;;;;;;;2.72;1.05;;;;;;;19.14;47.32;99704.16;5108638;28;20048;-77
2022/07/18 05:48:46;;;;;;;2.38;1.25;;;;;;;19.47;47.81;99711.22;5115568;27;20054;-78
2022/07/18 05:51:13;;;;;;;2.63;0.73;;;;;;;19.53;46.73;99717.75;5117614;27;20075;-78
2022/07/18 05:53:40;;;;;;;10.18;1.67;;;;;;;20.09;46.45;99702.81;5111707;28;20071;-78
2022/07/18 05:56:09;;;;;;;5.03;1.23;;;;;;;20.14;45.10;99697.44;5110781;28;20394;-78
2022/07/18 05:58:35;;;;;;;5.90;1.77;;;;;;;20.71;45.09;99700.84;5111829;28;20119;-79
2022/07/18 06:01:02;;;;;;;8.70;1.77;;;;;;;21.09;43.62;99700.38;5112835;27;20060;-78
2022/07/18 06:03:28;;;;;;;5.32;1.30;;;;;;;20.79;43.61;99683.91;5106324;28;20139;-78
2022/07/18 06:05:55;;;;;;;5.20;1.48;;;;;;;21.07;43.79;99710.81;5114719;27;20056;-78
2022/07/18 06:08:22;;;;;;;5.22;1.38;;;;;;;20.76;43.69;99679.72;5115558;27;20078;-78
2022/07/18 06:10:48;;;;;;;4.40;1.50;;;;;;;20.79;43.64;99708.75;5113487;28;20093;-79
2022/07/18 06:13:16;;;;;;;11.98;1.40;;;;;;;21.20;42.73;99696.75;5116271;27;20047;-79
2022/07/18 06:15:43;;;;;;;7.95;1.42;;;;;;;21.68;42.62;99702.22;5112471;27;20118;-79
2022/07/18 06:18:10;;;;;;;7.82;1.13;;;;;;;21.68;42.87;99708.59;5116368;27;20549;-79
2022/07/18 06:20:36;;;;;;;8.38;1.50;;;;;;;22.04;41.87;99706.56;5108642;28;20075;-78
2022/07/18 06:23:03;;;;;;;10.45;1.45;;;;;;;22.02;41.07;99682.97;5119201;27;20043;-79
2022/07/18 06:25:29;;;;;;;7.20;1.52;;;;;;;21.94;41.04;99711.88;5116171;27;20047;-80
2022/07/18 06:27:56;;;;;;;3.30;1.00;;;;;;;22.17;41.05;99697.09;5118316;27;20134;-78
2022/07/18 06:30:25;;;;;;;5.93;1.30;;;;;;;22.47;40.42;99717.31;5113670;27;20182;-79
2022/07/18 06:32:51;;;;;;;11.00;1.35;;;;;;;22.78;40.10;99705.66;5117702;27;21389;-79
2022/07/18 06:35:18;;;;;;;7.35;1.10;;;;;;;22.74;39.64;99675.94;5118568;27;20497;-79
2022/07/18 06:37:45;;;;;;;3.90;1.27;;;;;;;23.47;39.08;99698.09;5112986;28;20134;-79
2022/07/18 06:40:12;;;;;;;9.52;1.80;;;;;;;23.50;39.11;99705.91;5110740;28;20086;-80
2022/07/18 06:42:38;;;;;;;15.25;2.47;;;;;;;23.06;39.68;99709.41;5111176;27;20138;-80
2022/07/18 07:42:49;;;;;;;14.13;1.70;;;;;;;26.95;29.09;99681.13;5104567;28;20038;-80
2022/07/18 07:45:17;;;;;;;11.77;1.48;;;;;;;27.31;28.17;99678.25;5112600;27;20170;-78
2022/07/18 07:47:44;;;;;;;13.70;1.13;;;;;;;27.37;30.17;99667.94;5106878;28;20553;-78
2022/07/18 07:50:12;;;;;;;13.80;1.48;;;;;;;27.14;29.66;99675.75;5110951;28;20048;-78
2022/07/18 07:52:39;;;;;;;3.58;1.23;;;;;;;27.21;28.85;99664.31;5108272;28;20052;-78
2022/07/18 07:55:07;;;;;;;6.35;1.20;;;;;;;26.92;28.19;99672.47;5110795;27;20058;-80
2022/07/18 07:57:35;;;;;;;6.38;1.27;;;;;;;26.92;28.37;99672.47;5112027;28;20052;-79
2022/07/18 08:00:05;;;;;;;3.25;0.90;;;;;;;26.90;27.72;99688.66;5120587;27;20096;-79
2022/07/18 08:02:32;;;;;;;6.45;1.45;;;;;;;26.88;27.43;99666.63;5090800;28;20056;-79
2022/07/18 08:04:59;;;;;;;10.15;1.10;;;;;;;26.89;26.89;99673.88;5094970;28;20580;-79
2022/07/18 08:07:25;;;;;;;1.88;1.52;;;;;;;26.65;27.65;99677.19;5113851;27;20040;-79
2022/07/18 08:09:52;;;;;;;8.38;1.30;;;;;;;26.65;28.35;99671.63;5111761;28;20570;-79
2022/07/18 08:12:18;;;;;;;2.22;1.10;;;;;;;27.06;27.56;99659.63;5113086;27;20044;-79
2022/07/18 08:14:45;;;;;;;1.73;0.98;;;;;;;27.03;27.61;99649.84;5111937;28;20051;-79
2022/07/18 08:17:13;;;;;;;1.90;1.00;;;;;;;27.54;27.56;99651.66;5111952;28;20555;-79
2022/07/18 08:19:39;;;;;;;4.47;0.90;;;;;;;27.88;28.32;99662.13;5111469;28;20071;-79
2022/07/18 08:22:06;;;;;;;7.88;1.10;;;;;;;27.66;27.00;99634.59;5107108;28;20094;-79
2022/07/18 08:24:32;;;;;;;3.50;0.95;;;;;;;27.38;27.17;99633.31;5112473;27;20046;-78
2022/07/18 08:26:59;;;;;;;2.13;0.90;;;;;;;27.70;27.37;99646.00;5120928;27;20309;-79
2022/07/18 08:29:26;;;;;;;2.83;1.02;;;;;;;27.89;26.40;99648.97;5111950;28;20474;-80
2022/07/18 08:31:52;;;;;;;4.20;0.95;;;;;;;27.65;26.63;99648.84;5111652;28;20134;-78
2022/07/18 08:34:20;;;;;;;1.15;0.90;;;;;;;27.94;26.73;99642.53;5111147;28;20043;-78
2022/07/18 08:36:47;;;;;;;4.78;1.50;;;;;;;28.06;27.08;99626.28;5111450;27;20050;-78
2022/07/18 08:39:13;;;;;;;4.57;1.00;;;;;;;28.32;26.49;99643.72;5109784;28;20394;-80
2022/07/18 08:41:44;;;;;;;2.80;1.00;;;;;;;28.15;26.97;99634.88;5111379;28;20052;-79
2022/07/18 08:44:12;;;;;;;5.72;0.93;;;;;;;28.44;27.26;99634.94;5110762;28;20094;-79
2022/07/18 08:46:40;;;;;;;6.22;1.23;;;;;;;28.70;27.12;99638.38;5111008;27;20066;-79
2022/07/18 08:49:07;;;;;;;5.40;1.17;;;;;;;27.96;26.72;99626.31;5111310;28;20457;-79
2022/07/18 08:51:36;;;;;;;2.60;1.00;;;;;;;28.19;26.81;99647.16;5108504;28;20118;-79
2022/07/18 08:54:03;;;;;;;4.10;1.25;;;;;;;28.49;26.60;99643.28;5110103;28;20058;-79
2022/07/18 08:56:30;;;;;;;4.07;1.15;;;;;;;28.50;26.41;99638.50;5110601;28;20055;-79
2022/07/18 08:58:57;;;;;;;2.50;0.80;;;;;;;28.58;26.32;99649.91;5111332;28;20039;-79
2022/07/18 09:01:24;;;;;;;7.20;1.27;;;;;;;28.81;26.07;99639.09;5111530;28;20047;-79
2022/07/18 09:04:14;;;;;;;5.53;1.20;;;;;;;28.78;25.27;99656.47;5116758;27;20243;-79
2022/07/18 09:06:45;;;;;;;6.43;1.05;;;;;;;28.86;25.15;99622.28;5104701;27;20071;-79
2022/07/18 09:09:13;;;;;;;5.38;1.25;;;;;;;28.94;25.75;99644.00;5111414;28;20055;-79
2022/07/18 09:11:50;;;;;;;3.47;1.15;;;;;;;28.99;24.92;99622.72;5104304;28;20054;-79
2022/07/18 09:14:34;;;;;;;7.72;1.17;;;;;;;28.87;25.39;99631.50;5110347;28;20069;-79
2022/07/18 09:17:03;;;;;;;12.70;1.40;;;;;;;29.02;25.30;99644.50;5111179;28;20501;-79
2022/07/18 09:19:29;;;;;;;4.93;0.98;;;;;;;29.03;24.25;99641.41;5110640;28;20074;-79
2022/07/18 09:22:12;;;;;;;5.90;1.15;;;;;;;29.00;25.36;99646.78;5117062;27;20044;-79
2022/07/18 09:24:51;;;;;;;2.38;1.20;;;;;;;29.25;24.40;99640.06;5104120;28;20093;-79
2022/07/18 09:27:30;;;;;;;7.22;1.15;;;;;;;29.55;25.09;99643.63;5114945;28;20051;-79
2022/07/18 09:30:18;;;;;;;5.80;1.27;;;;;;;29.69;23.65;99643.72;5110981;27;20055;-79
2022/07/18 09:32:46;;;;;;;10.55;1.10;;;;;;;29.70;24.77;99640.63;5104184;28;20055;-79
2022/07/18 09:35:16;;;;;;;4.80;1.30;;;;;;;29.66;23.61;99628.38;5108684;27;20075;-79
2022/07/18 09:37:55;;;;;;;5.13;1.00;;;;;;;29.72;23.23;99631.91;5105323;28;20051;-79
2022/07/18 09:40:24;;;;;;;8.20;1.02;;;;;;;29.62;22.93;99627.28;5092239;28;20563;-79
2022/07/18 09:42:51;;;;;;;14.98;1.10;;;;;;;29.75;23.70;99606.94;5112595;27;20047;-79
2022/07/18 09:45:23;;;;;;;5.57;1.00;;;;;;;29.79;23.78;99622.03;5112538;27;20058;-78
2022/07/18 09:47:52;;;;;;;4.60;1.10;;;;;;;29.42;24.49;99611.59;5111671;28;20051;-79
2022/07/18 09:50:24;;;;;;;8.70;1.25;;;;;;;29.89;23.89;99635.06;5124160;27;20492;-79
2022/07/18 09:53:16;;;;;;;10.18;1.30;;;;;;;30.18;22.67;99636.88;5107673;27;20130;-79
2022/07/18 09:55:45;;;;;;;7.18;1.08;;;;;;;30.65;22.91;99621.00;5108023;27;21199;-79
2022/07/18 09:58:12;;;;;;;5.18;0.98;;;;;;;30.76;21.90;99624.44;5117536;27;20070;-79
2022/07/18 10:00:40;;;;;;;1.13;0.82;;;;;;;30.85;23.32;99619.78;5111026;28;20050;-79
2022/07/18 10:03:07;;;;;;;3.30;0.80;;;;;;;31.06;21.60;99620.25;5113677;28;20062;-79
2022/07/18 10:05:35;;;;;;;8.38;1.20;;;;;;;31.07;21.30;99612.66;5117715;27;20525;-79
2022/07/18 10:08:04;;;;;;;7.63;1.20;;;;;;;31.25;20.81;99596.84;5116122;28;20052;-79
2022/07/18 10:10:33;;;;;;;10.55;2.28;;;;;;;31.23;20.79;99594.34;5093673;28;20419;-80
2022/07/18 10:13:02;;;;;;;5.53;1.52;;;;;;;31.34;21.18;99614.63;5108328;28;20051;-79
2022/07/18 10:15:30;;;;;;;2.97;1.25;;;;;;;31.38;20.26;99601.63;5112994;28;20542;-79
2022/07/18 10:17:57;;;;;;;6.22;1.27;;;;;;;30.97;21.22;99615.63;5114440;27;20043;-79
2022/07/18 10:20:33;;;;;;;3.20;1.00;;;;;;;30.99;21.20;99593.72;5116092;27;20051;-79
2022/07/18 10:23:07;;;;;;;10.80;1.23;;;;;;;31.37;20.48;99615.97;5115347;28;20411;-78
2022/07/18 10:25:35;;;;;;;5.85;1.10;;;;;;;31.48;21.31;99610.97;5127764;27;20039;-78
2022/07/18 10:28:07;;;;;;;4.57;1.10;;;;;;;31.41;20.24;99608.59;5111272;28;20040;-78
2022/07/18 10:30:38;;;;;;;2.90;1.30;;;;;;;31.43;19.96;99597.88;5115842;27;20042;-79
2022/07/18 10:33:05;;;;;;;2.67;1.00;;;;;;;31.18;21.10;99599.22;5109848;28;20058;-78
2022/07/18 10:36:01;;;;;;;1.02;0.95;;;;;;;31.23;20.05;99608.41;5113335;27;20422;-78
2022/07/18 10:38:28;;;;;;;1.38;0.85;;;;;;;31.26;21.24;99606.13;5103554;28;20048;-78
2022/07/18 10:41:21;;;;;;;3.90;1.17;;;;;;;31.39;19.74;99602.44;5109110;28;20048;-79
2022/07/18 10:43:48;;;;;;;5.53;1.17;;;;;;;31.63;20.80;99602.25;5108982;27;20062;-79
2022/07/18 10:46:14;;;;;;;1.55;1.00;;;;;;;30.97;20.45;99594.00;5112566;28;20058;-79
2022/07/18 10:48:52;;;;;;;2.90;1.10;;;;;;;31.31;20.94;99601.22;5111579;27;20401;-78
2022/07/18 10:51:20;;;;;;;2.60;1.10;;;;;;;31.67;20.01;99579.97;5109357;27;20054;-79
2022/07/18 10:54:13;;;;;;;1.42;0.75;;;;;;;31.60;20.34;99594.44;5112807;27;20131;-79
2022/07/18 10:57:08;;;;;;;6.55;1.00;;;;;;;32.16;21.12;99589.53;5109665;27;20044;-78
2022/07/18 10:59:35;;;;;;;2.33;0.95;;;;;;;32.31;20.81;99574.25;5107358;27;20580;-78
2022/07/18 11:02:05;;;;;;;1.23;1.00;;;;;;;32.15;19.80;99590.66;5109276;28;20185;-78
2022/07/18 11:04:36;;;;;;;2.60;1.00;;;;;;;32.41;19.69;99590.84;5105535;28;20388;-78
2022/07/18 11:07:06;;;;;;;1.60;0.70;;;;;;;32.33;19.53;99562.69;5111735;28;20050;-78
2022/07/18 11:09:38;;;;;;;2.92;0.77;;;;;;;32.66;19.93;99576.47;5112496;27;20065;-78
2022/07/18 11:12:23;;;;;;;1.20;0.80;;;;;;;32.53;18.93;99570.56;5116127;27;20051;-78
2022/07/18 11:15:11;;;;;;;2.35;0.70;;;;;;;32.75;18.38;99571.72;5111289;27;20054;-78
2022/07/18 11:18:02;;;;;;;2.22;0.80;;;;;;;33.04;18.45;99582.44;5108082;27;20104;-78
2022/07/18 11:20:35;;;;;;;1.08;0.65;;;;;;;33.15;18.81;99575.38;5111264;27;20071;-78
2022/07/18 11:23:03;;;;;;;11.70;1.23;;;;;;;33.19;19.62;99561.44;5112590;28;20476;-78
2022/07/18 11:25:30;;;;;;;1.08;0.73;;;;;;;33.20;20.10;99563.16;5118914;27;20046;-78
2022/07/18 11:27:58;;;;;;;1.27;0.60;;;;;;;32.88;18.81;99573.63;5108547;27;20046;-79
2022/07/18 11:30:25;;;;;;;1.42;1.02;;;;;;;32.40;18.28;99554.59;5116208;27;20059;-78
2022/07/18 11:32:52;;;;;;;1.42;0.95;;;;;;;32.88;19.93;99564.31;5112392;27;20051;-79
2022/07/18 11:35:23;;;;;;;2.88;1.10;;;;;;;33.01;19.28;99543.66;5112618;28;20048;-78
2022/07/18 11:37:51;;;;;;;1.63;0.93;;;;;;;33.34;19.02;99541.31;5110329;27;20067;-79
2022/07/18 11:40:18;;;;;;;1.15;1.00;;;;;;;33.59;18.80;99555.78;5113313;27;20081;-79
2022/07/18 11:42:45;;;;;;;2.10;1.10;;;;;;;33.51;18.50;99557.44;5114167;27;20063;-78
2022/07/18 11:45:14;;;;;;;0.85;0.85;;;;;;;33.76;18.31;99554.97;5119583;27;20082;-78
2022/07/18 11:47:45;;;;;;;2.55;0.80;;;;;;;33.92;18.09;99549.69;5108347;28;20395;-78
2022/07/18 11:50:12;;;;;;;4.13;1.20;;;;;;;33.90;18.00;99549.19;5108531;28;20047;-78
2022/07/18 11:52:39;;;;;;;1.90;1.27;;;;;;;33.59;18.50;99535.19;5112781;27;20043;-78
2022/07/18 11:55:06;;;;;;;1.73;1.05;;;;;;;33.59;18.43;99529.56;5110951;27;20114;-78
2022/07/18 11:57:34;;;;;;;4.15;1.10;;;;;;;33.56;17.56;99541.50;5112107;27;21844;-78
2022/07/18 12:00:01;;;;;;;3.35;0.90;;;;;;;33.20;17.98;99511.59;5115904;27;20289;-79
2022/07/18 12:02:29;;;;;;;2.17;1.13;;;;;;;33.31;19.48;99527.88;5113040;27;20051;-79
2022/07/18 12:04:56;;;;;;;1.55;0.93;;;;;;;33.25;17.90;99526.38;5112270;27;20055;-78
2022/07/18 12:07:25;;;;;;;3.45;1.00;;;;;;;33.30;18.33;99529.06;5112517;27;20070;-80
2022/07/18 12:09:53;;;;;;;2.08;0.95;;;;;;;33.45;19.87;99526.91;5112184;27;20490;-78
2022/07/18 12:12:22;;;;;;;3.03;1.15;;;;;;;33.68;18.66;99528.41;5111382;27;20044;-78
2022/07/18 12:15:01;;;;;;;5.50;1.02;;;;;;;33.64;18.79;99506.88;5111521;27;20047;-78
2022/07/18 12:17:30;;;;;;;2.78;0.88;;;;;;;33.44;18.94;99503.53;5110894;27;20051;-78
2022/07/18 12:20:10;;;;;;;4.78;1.10;;;;;;;34.04;18.34;99513.19;5113272;27;20062;-78
2022/07/18 12:22:37;;;;;;;1.48;0.90;;;;;;;34.47;19.92;99519.09;5099030;27;20047;-78
2022/07/18 12:25:04;;;;;;;3.70;0.70;;;;;;;34.27;19.49;99507.34;5126380;27;20049;-77
2022/07/18 12:27:36;;;;;;;4.20;0.95;;;;;;;34.44;17.53;99505.66;5109720;28;20079;-78
2022/07/18 12:30:09;;;;;;;4.05;1.00;;;;;;;34.28;17.78;99494.06;5109497;28;20044;-78
2022/07/18 12:32:50;;;;;;;2.13;0.90;;;;;;;34.45;17.61;99510.97;5112688;27;20050;-78
2022/07/18 12:35:19;;;;;;;3.70;1.30;;;;;;;33.64;18.21;99485.13;5109339;28;20433;-78
2022/07/18 12:37:53;;;;;;;1.20;0.80;;;;;;;33.97;17.68;99497.94;5106078;27;20048;-78